Main page
Satellite images 10-day forecastsClimateMarine weather Cyclones Lightning AirportsFAQ Newsletter About
Weather : Europe Africa North America South America Asia Australia-Oceania Others
Languages Contact

Singapore, Singapore

Paya Lebar Air Base

latitude: 01-22N, longitude: 103-55E, elevation: 18 m


METAR: WSAP 062100Z 05006KT 9999 FEW018 BKN300 26/23 Q1010
TAF: WSAP 061700Z 0618/0724 04007KT 9999 FEW018CB SCT020

Time: 05:32 (21:32 UTC)

Current weather observation

The report was made 32 minutes ago, at 21:00 UTC
Wind 6 kt from the Northeast
Temperature 26°C
Humidity 84%
Pressure 1010 hPa
Visibility 10 km or more
Few clouds at a height of 1800 ft
Broken clouds at a height of 30000 ft

Change units

Forecast

The report was made 4 hours and 32 minutes ago, at 17:00 UTC
Forecast valid from 06 at 18 UTC to 07 at 24 UTC
Wind 7 kt from the Northeast
Visibility 10 km or more
Few clouds at a height of 1800 ft, Cumulonimbus.
Scattered clouds at a height of 2000 ft
The information on this site is subject to a disclaimer
Weather : Europe Africa North America South America Asia Australia-Oceania Others
Satellite images 10-day forecastsClimateMarine weather Cyclones Lightning AirportsFAQ Languages Contact Newsletter About